AAL212 KBNA-KMEM
Flight info
| Callsign | AAL212 |
|---|---|
| Flight time | 0h 40m |
| Altitude | 24000 |
| Route | DANLS4 DANLS SPKER BLUZZ5 |
| Aircraft | A319/M-SDE3FGHIRWY/LB1 |
Departure
| Time | 2026-05-06 01:02 |
|---|---|
| Airport | Nashville International Airport (KBNA) |
Arrival
| Time | 2026-05-06 01:43 |
|---|---|
| Airport | Memphis International Airport (KMEM) |
| Time | Latitude | Longitude | Altitude | Speed | Heading |
|---|---|---|---|---|---|
| 2026-05-06 00:41 | 36.13337 | -86.67197 | 575 ft | 0 kts | 211° |
| 2026-05-06 00:48 | 36.13333 | -86.67201 | 575 ft | 0 kts | 213° |
| 2026-05-06 00:54 | 36.13351 | -86.67186 | 577 ft | 4 kts | 217° |
| 2026-05-06 00:54 | 36.13371 | -86.67164 | 575 ft | 4 kts | 240° |
| 2026-05-06 00:54 | 36.13376 | -86.67142 | 575 ft | 0 kts | 278° |
| 2026-05-06 00:57 | 36.13376 | -86.67143 | 575 ft | 1 kts | 278° |
| 2026-05-06 00:57 | 36.13392 | -86.67209 | 577 ft | 14 kts | 289° |
| 2026-05-06 00:57 | 36.13425 | -86.67335 | 576 ft | 17 kts | 288° |
| 2026-05-06 00:57 | 36.13465 | -86.67487 | 579 ft | 20 kts | 288° |
| 2026-05-06 00:58 | 36.13510 | -86.67663 | 575 ft | 20 kts | 287° |
| 2026-05-06 00:58 | 36.13543 | -86.67756 | 575 ft | 10 kts | 326° |
| 2026-05-06 00:58 | 36.13627 | -86.67733 | 575 ft | 16 kts | 18° |
| 2026-05-06 00:58 | 36.13725 | -86.67705 | 575 ft | 12 kts | 340° |
| 2026-05-06 00:59 | 36.13748 | -86.67758 | 576 ft | 0 kts | 288° |
| 2026-05-06 01:01 | 36.13756 | -86.67786 | 576 ft | 8 kts | 288° |
| 2026-05-06 01:01 | 36.13765 | -86.67859 | 577 ft | 10 kts | 241° |
| 2026-05-06 01:01 | 36.13671 | -86.67903 | 579 ft | 35 kts | 198° |
| 2026-05-06 01:01 | 36.13107 | -86.68125 | 578 ft | 129 kts | 197° |
| 2026-05-06 01:02 | 36.12060 | -86.68537 | 905 ft | 170 kts | 199° |
| 2026-05-06 01:02 | 36.10920 | -86.69031 | 1754 ft | 180 kts | 206° |
| 2026-05-06 01:02 | 36.09941 | -86.70056 | 2581 ft | 194 kts | 232° |
| 2026-05-06 01:02 | 36.09209 | -86.71515 | 3418 ft | 206 kts | 236° |
| 2026-05-06 01:03 | 36.08441 | -86.73082 | 4241 ft | 221 kts | 236° |
| 2026-05-06 01:03 | 36.07600 | -86.74790 | 5048 ft | 246 kts | 236° |
| 2026-05-06 01:03 | 36.06865 | -86.76733 | 5817 ft | 254 kts | 253° |
| 2026-05-06 01:03 | 36.06908 | -86.78933 | 6577 ft | 263 kts | 277° |
| 2026-05-06 01:04 | 36.07360 | -86.81099 | 7318 ft | 264 kts | 278° |
| 2026-05-06 01:04 | 36.07822 | -86.83298 | 8076 ft | 265 kts | 278° |
| 2026-05-06 01:04 | 36.08277 | -86.85510 | 8820 ft | 267 kts | 278° |
| 2026-05-06 01:04 | 36.08728 | -86.87748 | 9587 ft | 273 kts | 277° |
| 2026-05-06 01:05 | 36.08897 | -86.90150 | 10357 ft | 290 kts | 269° |
| 2026-05-06 01:05 | 36.08980 | -86.92727 | 11122 ft | 309 kts | 269° |
| 2026-05-06 01:05 | 36.09067 | -86.95434 | 11882 ft | 321 kts | 270° |
| 2026-05-06 01:05 | 36.09157 | -86.98217 | 12640 ft | 325 kts | 271° |
| 2026-05-06 01:06 | 36.09252 | -87.01017 | 13392 ft | 329 kts | 271° |
| 2026-05-06 01:06 | 36.09353 | -87.03852 | 14144 ft | 332 kts | 271° |
| 2026-05-06 01:06 | 36.09451 | -87.06684 | 14889 ft | 335 kts | 271° |
| 2026-05-06 01:06 | 36.09549 | -87.09581 | 15647 ft | 340 kts | 271° |
| 2026-05-06 01:07 | 36.09645 | -87.12515 | 16401 ft | 344 kts | 271° |
| 2026-05-06 01:07 | 36.09744 | -87.15491 | 17165 ft | 348 kts | 271° |
| 2026-05-06 01:07 | 36.09845 | -87.18502 | 17907 ft | 353 kts | 271° |
| 2026-05-06 01:07 | 36.09846 | -87.21552 | 18664 ft | 357 kts | 265° |
| 2026-05-06 01:08 | 36.09388 | -87.24580 | 19422 ft | 361 kts | 256° |
| 2026-05-06 01:08 | 36.08782 | -87.27537 | 20779 ft | 346 kts | 257° |
| 2026-05-06 01:08 | 36.08210 | -87.30356 | 22274 ft | 332 kts | 257° |
| 2026-05-06 01:08 | 36.07648 | -87.33138 | 23113 ft | 337 kts | 257° |
| 2026-05-06 01:09 | 36.07073 | -87.36012 | 23511 ft | 353 kts | 257° |
| 2026-05-06 01:09 | 36.06471 | -87.39031 | 23749 ft | 370 kts | 257° |
| 2026-05-06 01:09 | 36.05838 | -87.42196 | 23844 ft | 388 kts | 257° |
| 2026-05-06 01:09 | 36.05189 | -87.45414 | 23862 ft | 401 kts | 257° |
| 2026-05-06 01:10 | 36.04497 | -87.48823 | 23860 ft | 417 kts | 257° |
| 2026-05-06 01:10 | 36.03786 | -87.52327 | 23860 ft | 423 kts | 257° |
| 2026-05-06 01:10 | 36.03067 | -87.55863 | 23860 ft | 425 kts | 257° |
| 2026-05-06 01:10 | 36.02343 | -87.59405 | 23860 ft | 425 kts | 257° |
| 2026-05-06 01:11 | 36.01617 | -87.62945 | 23859 ft | 425 kts | 257° |
| 2026-05-06 01:11 | 36.00892 | -87.66484 | 23861 ft | 425 kts | 257° |
| 2026-05-06 01:11 | 36.00169 | -87.70023 | 23860 ft | 425 kts | 257° |
| 2026-05-06 01:11 | 35.99447 | -87.73568 | 23857 ft | 425 kts | 257° |
| 2026-05-06 01:12 | 35.98725 | -87.77103 | 23858 ft | 425 kts | 257° |
| 2026-05-06 01:12 | 35.97997 | -87.80644 | 23815 ft | 425 kts | 256° |
| 2026-05-06 01:12 | 35.97282 | -87.84111 | 23527 ft | 405 kts | 256° |
| 2026-05-06 01:12 | 35.96612 | -87.87358 | 23267 ft | 388 kts | 256° |
| 2026-05-06 01:13 | 35.95947 | -87.90557 | 23032 ft | 382 kts | 256° |
| 2026-05-06 01:13 | 35.95287 | -87.93718 | 22780 ft | 379 kts | 256° |
| 2026-05-06 01:13 | 35.94629 | -87.96869 | 22531 ft | 378 kts | 256° |
| 2026-05-06 01:13 | 35.93975 | -88.00008 | 22284 ft | 376 kts | 256° |
| 2026-05-06 01:14 | 35.92690 | -88.06205 | 21782 ft | 374 kts | 256° |
| 2026-05-06 01:14 | 35.92047 | -88.09305 | 21532 ft | 373 kts | 256° |
| 2026-05-06 01:14 | 35.91405 | -88.12393 | 21284 ft | 372 kts | 256° |
| 2026-05-06 01:15 | 35.90762 | -88.15478 | 21032 ft | 371 kts | 256° |
| 2026-05-06 01:15 | 35.90102 | -88.18639 | 20778 ft | 388 kts | 256° |
| 2026-05-06 01:15 | 35.89431 | -88.21842 | 20535 ft | 392 kts | 256° |
| 2026-05-06 01:15 | 35.88748 | -88.25100 | 20283 ft | 392 kts | 256° |
| 2026-05-06 01:16 | 35.88068 | -88.28355 | 20032 ft | 391 kts | 257° |
| 2026-05-06 01:16 | 35.87427 | -88.31604 | 19781 ft | 389 kts | 257° |
| 2026-05-06 01:16 | 35.86819 | -88.34851 | 19534 ft | 388 kts | 258° |
| 2026-05-06 01:16 | 35.86233 | -88.38044 | 19279 ft | 373 kts | 258° |
| 2026-05-06 01:17 | 35.85674 | -88.41104 | 19027 ft | 358 kts | 258° |
| 2026-05-06 01:17 | 35.85132 | -88.44046 | 18780 ft | 348 kts | 258° |
| 2026-05-06 01:17 | 35.84591 | -88.46942 | 18530 ft | 345 kts | 258° |
| 2026-05-06 01:17 | 35.84051 | -88.49810 | 18280 ft | 343 kts | 258° |
| 2026-05-06 01:18 | 35.83522 | -88.52609 | 18037 ft | 334 kts | 258° |
| 2026-05-06 01:18 | 35.83006 | -88.55340 | 17840 ft | 320 kts | 258° |
| 2026-05-06 01:18 | 35.82507 | -88.57963 | 17638 ft | 308 kts | 258° |
| 2026-05-06 01:18 | 35.82024 | -88.60490 | 17442 ft | 298 kts | 258° |
| 2026-05-06 01:19 | 35.81557 | -88.62932 | 17238 ft | 289 kts | 258° |
| 2026-05-06 01:19 | 35.81102 | -88.65313 | 17042 ft | 284 kts | 258° |
| 2026-05-06 01:19 | 35.80653 | -88.67676 | 16841 ft | 282 kts | 258° |
| 2026-05-06 01:19 | 35.80205 | -88.70027 | 16640 ft | 282 kts | 258° |
| 2026-05-06 01:20 | 35.79756 | -88.72370 | 16440 ft | 280 kts | 258° |
| 2026-05-06 01:20 | 35.79309 | -88.74703 | 16232 ft | 279 kts | 258° |
| 2026-05-06 01:20 | 35.78864 | -88.77020 | 16037 ft | 278 kts | 258° |
| 2026-05-06 01:20 | 35.78570 | -88.78554 | 15900 ft | 277 kts | 258° |
| 2026-05-06 01:21 | 35.77981 | -88.81604 | 15641 ft | 276 kts | 258° |
| 2026-05-06 01:21 | 35.77536 | -88.83900 | 15466 ft | 275 kts | 258° |
| 2026-05-06 01:21 | 35.77094 | -88.86187 | 15291 ft | 274 kts | 258° |
| 2026-05-06 01:21 | 35.76652 | -88.88469 | 15113 ft | 273 kts | 258° |
| 2026-05-06 01:22 | 35.76215 | -88.90739 | 14941 ft | 272 kts | 258° |
| 2026-05-06 01:22 | 35.75926 | -88.92240 | 14821 ft | 271 kts | 258° |
| 2026-05-06 01:22 | 35.75492 | -88.94502 | 14651 ft | 271 kts | 257° |
| 2026-05-06 01:22 | 35.75036 | -88.96872 | 14477 ft | 302 kts | 257° |
| 2026-05-06 01:23 | 35.74538 | -88.99455 | 14300 ft | 315 kts | 257° |
| 2026-05-06 01:23 | 35.74025 | -89.02082 | 14127 ft | 316 kts | 257° |
| 2026-05-06 01:23 | 35.73264 | -89.05542 | 14005 ft | 317 kts | 250° |
| 2026-05-06 01:23 | 35.72220 | -89.07935 | 14009 ft | 320 kts | 238° |
| 2026-05-06 01:24 | 35.71250 | -89.09367 | 14009 ft | 324 kts | 231° |
| 2026-05-06 01:24 | 35.69715 | -89.11343 | 13901 ft | 323 kts | 230° |
| 2026-05-06 01:24 | 35.68195 | -89.13306 | 13598 ft | 313 kts | 231° |
| 2026-05-06 01:24 | 35.66705 | -89.15236 | 13294 ft | 309 kts | 231° |
| 2026-05-06 01:25 | 35.65227 | -89.17146 | 12993 ft | 307 kts | 230° |
| 2026-05-06 01:25 | 35.63757 | -89.19045 | 12696 ft | 306 kts | 230° |
| 2026-05-06 01:25 | 35.62295 | -89.20929 | 12396 ft | 304 kts | 230° |
| 2026-05-06 01:25 | 35.60856 | -89.22817 | 12098 ft | 301 kts | 232° |
| 2026-05-06 01:26 | 35.59504 | -89.24724 | 11823 ft | 290 kts | 233° |
| 2026-05-06 01:26 | 35.58239 | -89.26592 | 11593 ft | 279 kts | 234° |
| 2026-05-06 01:26 | 35.57043 | -89.28385 | 11370 ft | 270 kts | 234° |
| 2026-05-06 01:26 | 35.55870 | -89.30143 | 11146 ft | 262 kts | 234° |
| 2026-05-06 01:27 | 35.54732 | -89.31844 | 10920 ft | 255 kts | 233° |
| 2026-05-06 01:27 | 35.53626 | -89.33503 | 10695 ft | 247 kts | 233° |
| 2026-05-06 01:27 | 35.52548 | -89.35112 | 10471 ft | 241 kts | 233° |
| 2026-05-06 01:27 | 35.51483 | -89.36681 | 10246 ft | 238 kts | 232° |
| 2026-05-06 01:28 | 35.50424 | -89.38229 | 10078 ft | 237 kts | 232° |
| 2026-05-06 01:28 | 35.49360 | -89.39775 | 9999 ft | 237 kts | 232° |
| 2026-05-06 01:28 | 35.48294 | -89.41319 | 10000 ft | 237 kts | 232° |
| 2026-05-06 01:28 | 35.47240 | -89.42843 | 10002 ft | 238 kts | 232° |
| 2026-05-06 01:29 | 35.46155 | -89.44411 | 10000 ft | 238 kts | 232° |
| 2026-05-06 01:29 | 35.45097 | -89.45933 | 9997 ft | 237 kts | 232° |
| 2026-05-06 01:29 | 35.44025 | -89.47472 | 9994 ft | 237 kts | 232° |
| 2026-05-06 01:29 | 35.42961 | -89.49020 | 9994 ft | 237 kts | 234° |
| 2026-05-06 01:30 | 35.42299 | -89.50850 | 9992 ft | 237 kts | 255° |
| 2026-05-06 01:30 | 35.41957 | -89.52819 | 9989 ft | 233 kts | 257° |
| 2026-05-06 01:30 | 35.41651 | -89.54729 | 9832 ft | 226 kts | 257° |
| 2026-05-06 01:30 | 35.41352 | -89.56602 | 9671 ft | 224 kts | 258° |
| 2026-05-06 01:31 | 35.41052 | -89.58480 | 9495 ft | 224 kts | 257° |
| 2026-05-06 01:31 | 35.40759 | -89.60360 | 9319 ft | 225 kts | 258° |
| 2026-05-06 01:31 | 35.40473 | -89.62219 | 9145 ft | 225 kts | 257° |
| 2026-05-06 01:31 | 35.40187 | -89.64100 | 8974 ft | 225 kts | 257° |
| 2026-05-06 01:32 | 35.39905 | -89.65982 | 8795 ft | 224 kts | 258° |
| 2026-05-06 01:32 | 35.39623 | -89.67853 | 8620 ft | 223 kts | 258° |
| 2026-05-06 01:32 | 35.39343 | -89.69719 | 8445 ft | 222 kts | 258° |
| 2026-05-06 01:32 | 35.39069 | -89.71586 | 8274 ft | 223 kts | 257° |
| 2026-05-06 01:33 | 35.38797 | -89.73454 | 8093 ft | 222 kts | 258° |
| 2026-05-06 01:33 | 35.38525 | -89.75314 | 7918 ft | 222 kts | 258° |
| 2026-05-06 01:33 | 35.38255 | -89.77141 | 7744 ft | 220 kts | 257° |
| 2026-05-06 01:33 | 35.37991 | -89.78987 | 7569 ft | 220 kts | 258° |
| 2026-05-06 01:34 | 35.37731 | -89.80834 | 7395 ft | 221 kts | 257° |
| 2026-05-06 01:34 | 35.37478 | -89.82686 | 7224 ft | 220 kts | 258° |
| 2026-05-06 01:34 | 35.37225 | -89.84531 | 7044 ft | 220 kts | 258° |
| 2026-05-06 01:34 | 35.36968 | -89.86374 | 6871 ft | 219 kts | 258° |
| 2026-05-06 01:35 | 35.36718 | -89.88213 | 6692 ft | 219 kts | 258° |
| 2026-05-06 01:35 | 35.36471 | -89.90043 | 6525 ft | 217 kts | 258° |
| 2026-05-06 01:35 | 35.36132 | -89.91836 | 6366 ft | 216 kts | 248° |
| 2026-05-06 01:35 | 35.35314 | -89.93350 | 6227 ft | 216 kts | 225° |
| 2026-05-06 01:36 | 35.34053 | -89.94299 | 6084 ft | 218 kts | 205° |
| 2026-05-06 01:36 | 35.32643 | -89.94924 | 5994 ft | 212 kts | 204° |
| 2026-05-06 01:36 | 35.31257 | -89.95538 | 5631 ft | 215 kts | 204° |
| 2026-05-06 01:36 | 35.29869 | -89.96156 | 5303 ft | 210 kts | 204° |
| 2026-05-06 01:37 | 35.28511 | -89.96760 | 4978 ft | 206 kts | 204° |
| 2026-05-06 01:37 | 35.27180 | -89.97350 | 4667 ft | 201 kts | 202° |
| 2026-05-06 01:37 | 35.25827 | -89.97713 | 4361 ft | 200 kts | 186° |
| 2026-05-06 01:37 | 35.24456 | -89.97712 | 4091 ft | 193 kts | 182° |
| 2026-05-06 01:38 | 35.23142 | -89.97680 | 3837 ft | 183 kts | 182° |
| 2026-05-06 01:38 | 35.21909 | -89.97652 | 3597 ft | 171 kts | 183° |
| 2026-05-06 01:38 | 35.20735 | -89.97628 | 3376 ft | 167 kts | 182° |
| 2026-05-06 01:38 | 35.19602 | -89.97604 | 3160 ft | 164 kts | 182° |
| 2026-05-06 01:39 | 35.18465 | -89.97581 | 2941 ft | 162 kts | 181° |
| 2026-05-06 01:39 | 35.17338 | -89.97558 | 2728 ft | 162 kts | 180° |
| 2026-05-06 01:39 | 35.16209 | -89.97534 | 2510 ft | 164 kts | 180° |
| 2026-05-06 01:39 | 35.15060 | -89.97510 | 2304 ft | 167 kts | 180° |
| 2026-05-06 01:40 | 35.13930 | -89.97485 | 2082 ft | 152 kts | 181° |
| 2026-05-06 01:40 | 35.12916 | -89.97463 | 1879 ft | 141 kts | 181° |
| 2026-05-06 01:40 | 35.11949 | -89.97443 | 1699 ft | 138 kts | 181° |
| 2026-05-06 01:40 | 35.11001 | -89.97424 | 1519 ft | 139 kts | 180° |
| 2026-05-06 01:41 | 35.10039 | -89.97403 | 1335 ft | 138 kts | 180° |
| 2026-05-06 01:41 | 35.09082 | -89.97383 | 1152 ft | 137 kts | 180° |
| 2026-05-06 01:41 | 35.08127 | -89.97371 | 978 ft | 137 kts | 181° |
| 2026-05-06 01:41 | 35.07172 | -89.97362 | 813 ft | 137 kts | 180° |
| 2026-05-06 01:42 | 35.06217 | -89.97334 | 623 ft | 137 kts | 179° |
| 2026-05-06 01:42 | 35.05272 | -89.97308 | 433 ft | 136 kts | 181° |
| 2026-05-06 01:42 | 35.04328 | -89.97288 | 338 ft | 132 kts | 180° |
| 2026-05-06 01:42 | 35.03575 | -89.97269 | 329 ft | 85 kts | 179° |
| 2026-05-06 01:43 | 35.03212 | -89.97262 | 330 ft | 22 kts | 182° |
| 2026-05-06 01:43 | 35.03160 | -89.97407 | 329 ft | 15 kts | 271° |